Decoded Metar for K14Y ( in MN, USA) (IATA:N/A) | Meteo·Mobile Aviation Weather
aviador You're here:

K14Y Decoded Metar

in MN, USA
Report Time2018-10-20 21:17:00
UTC Time2018-10-20 21:37:58
Flight Rules unknown UNKNOWN
Wind320° at 08 Gusting to 15 kt
W.Rank320° ranks 11
Current wind is above 320° avg. (7.4)
VisibilityN/A
Phenomena:N/A
Clouds:N/A
Expected CloudBase > 4,000 ft AGL from Temp-Dew spread
CeilingNone
Temp03°C (ISA -9)
Dew Point-7°C (48% RH)
AAT-2.7°C
QNH1026 hPa
Density Alt-184 ft
Elevation1,332 ft
Report Wrong Elevation
Raw Report
K14Y 202117Z AUTO 32008G15KT CLR 03/M07 A3031 RMK AO2 PWINO=

Extra information for K14Y:More info

Metar Taf Metar & Taf Last 4 Metars F.Rules Stats Wind Profile Meteogram Temp Stats Metar ALERT Operation Metar Decoded Social comments

AIRNAV info for K14Y